DLH44Q EDDN-EDDV
Flight info
| Callsign | DLH44Q |
|---|---|
| Flight time | 0h 38m |
| Altitude | 30000 |
| Route | ERETO1G ERETO DCT LONLI M726 LASTO M852 BIRKA/N0430F240 T803 GITEX GITEX1Z |
| Aircraft | A320/M-SDE3FGHIRWY/LB1 |
Departure
| Time | 2026-05-07 19:18 |
|---|---|
| Airport | Nuremberg Airport (EDDN) |
Arrival
| Time | 2026-05-07 19:56 |
|---|---|
| Airport | Hannover Airport (EDDV) |
| Time | Latitude | Longitude | Altitude | Speed | Heading |
|---|---|---|---|---|---|
| 2026-05-07 18:57 | 49.49527 | 11.07660 | 1027 ft | 0 kts | 189° |
| 2026-05-07 19:10 | 49.49550 | 11.07665 | 1027 ft | 4 kts | 191° |
| 2026-05-07 19:10 | 49.49576 | 11.07669 | 1026 ft | 4 kts | 178° |
| 2026-05-07 19:10 | 49.49600 | 11.07666 | 1029 ft | 1 kts | 173° |
| 2026-05-07 19:13 | 49.49599 | 11.07666 | 1029 ft | 1 kts | 171° |
| 2026-05-07 19:13 | 49.49583 | 11.07741 | 1029 ft | 16 kts | 92° |
| 2026-05-07 19:13 | 49.49571 | 11.07922 | 1030 ft | 16 kts | 97° |
| 2026-05-07 19:13 | 49.49556 | 11.08086 | 1030 ft | 15 kts | 99° |
| 2026-05-07 19:14 | 49.49541 | 11.08230 | 1029 ft | 12 kts | 99° |
| 2026-05-07 19:14 | 49.49540 | 11.08336 | 1033 ft | 8 kts | 61° |
| 2026-05-07 19:14 | 49.49584 | 11.08362 | 1032 ft | 9 kts | 11° |
| 2026-05-07 19:14 | 49.49614 | 11.08449 | 1031 ft | 11 kts | 97° |
| 2026-05-07 19:15 | 49.49600 | 11.08612 | 1033 ft | 16 kts | 98° |
| 2026-05-07 19:15 | 49.49583 | 11.08771 | 1035 ft | 14 kts | 99° |
| 2026-05-07 19:15 | 49.49574 | 11.08857 | 1036 ft | 12 kts | 99° |
| 2026-05-07 19:15 | 49.49548 | 11.09135 | 1038 ft | 23 kts | 98° |
| 2026-05-07 19:16 | 49.49532 | 11.09292 | 1041 ft | 20 kts | 99° |
| 2026-05-07 19:16 | 49.49587 | 11.09473 | 1042 ft | 20 kts | 52° |
| 2026-05-07 19:16 | 49.49681 | 11.09574 | 1045 ft | 11 kts | 354° |
| 2026-05-07 19:16 | 49.49702 | 11.09512 | 1044 ft | 0 kts | 280° |
| 2026-05-07 19:17 | 49.49744 | 11.09086 | 1039 ft | 79 kts | 279° |
| 2026-05-07 19:17 | 49.49860 | 11.07907 | 1034 ft | 139 kts | 278° |
| 2026-05-07 19:17 | 49.50019 | 11.06247 | 1349 ft | 160 kts | 279° |
| 2026-05-07 19:18 | 49.50188 | 11.04573 | 2169 ft | 158 kts | 281° |
| 2026-05-07 19:18 | 49.50358 | 11.02900 | 2765 ft | 164 kts | 281° |
| 2026-05-07 19:18 | 49.50543 | 11.01050 | 3085 ft | 185 kts | 281° |
| 2026-05-07 19:18 | 49.50748 | 10.98973 | 3363 ft | 207 kts | 281° |
| 2026-05-07 19:19 | 49.50971 | 10.96684 | 3710 ft | 228 kts | 280° |
| 2026-05-07 19:19 | 49.51382 | 10.94222 | 4159 ft | 247 kts | 301° |
| 2026-05-07 19:19 | 49.52658 | 10.92457 | 4946 ft | 255 kts | 336° |
| 2026-05-07 19:19 | 49.54416 | 10.91894 | 5811 ft | 262 kts | 354° |
| 2026-05-07 19:20 | 49.56259 | 10.91910 | 6675 ft | 268 kts | 1° |
| 2026-05-07 19:20 | 49.58132 | 10.92198 | 7494 ft | 274 kts | 11° |
| 2026-05-07 19:20 | 49.59886 | 10.93422 | 8309 ft | 283 kts | 35° |
| 2026-05-07 19:20 | 49.61381 | 10.95443 | 9165 ft | 288 kts | 40° |
| 2026-05-07 19:21 | 49.62845 | 10.97518 | 10003 ft | 292 kts | 40° |
| 2026-05-07 19:21 | 49.64369 | 10.99689 | 10493 ft | 308 kts | 40° |
| 2026-05-07 19:21 | 49.66004 | 11.02017 | 10739 ft | 332 kts | 40° |
| 2026-05-07 19:21 | 49.67768 | 11.04523 | 10943 ft | 355 kts | 41° |
| 2026-05-07 19:22 | 49.69628 | 11.07169 | 11312 ft | 369 kts | 41° |
| 2026-05-07 19:22 | 49.71527 | 11.09880 | 11946 ft | 375 kts | 41° |
| 2026-05-07 19:22 | 49.73452 | 11.12631 | 12626 ft | 379 kts | 41° |
| 2026-05-07 19:22 | 49.75402 | 11.15417 | 13297 ft | 384 kts | 41° |
| 2026-05-07 19:23 | 49.77376 | 11.18236 | 13953 ft | 388 kts | 41° |
| 2026-05-07 19:23 | 49.79367 | 11.21085 | 14557 ft | 392 kts | 41° |
| 2026-05-07 19:23 | 49.81378 | 11.23968 | 15143 ft | 395 kts | 41° |
| 2026-05-07 19:23 | 49.83400 | 11.26875 | 15733 ft | 399 kts | 41° |
| 2026-05-07 19:24 | 49.85442 | 11.29811 | 16309 ft | 402 kts | 41° |
| 2026-05-07 19:24 | 49.87553 | 11.32673 | 16864 ft | 404 kts | 33° |
| 2026-05-07 19:24 | 49.90030 | 11.34713 | 17430 ft | 403 kts | 18° |
| 2026-05-07 19:24 | 49.92722 | 11.35631 | 17975 ft | 403 kts | 2° |
| 2026-05-07 19:25 | 49.95518 | 11.35386 | 18488 ft | 403 kts | 347° |
| 2026-05-07 19:25 | 49.98164 | 11.33974 | 18910 ft | 404 kts | 332° |
| 2026-05-07 19:25 | 50.00484 | 11.31554 | 19041 ft | 404 kts | 320° |
| 2026-05-07 19:25 | 50.02708 | 11.28738 | 19071 ft | 419 kts | 320° |
| 2026-05-07 19:26 | 50.05107 | 11.26150 | 19073 ft | 431 kts | 329° |
| 2026-05-07 19:26 | 50.07865 | 11.24184 | 19069 ft | 436 kts | 340° |
| 2026-05-07 19:26 | 50.10846 | 11.23017 | 19080 ft | 438 kts | 350° |
| 2026-05-07 19:26 | 50.13920 | 11.22686 | 19151 ft | 448 kts | 359° |
| 2026-05-07 19:27 | 50.17052 | 11.22727 | 19408 ft | 452 kts | 359° |
| 2026-05-07 19:27 | 50.20206 | 11.22750 | 19759 ft | 454 kts | 359° |
| 2026-05-07 19:27 | 50.23372 | 11.22756 | 20093 ft | 456 kts | 359° |
| 2026-05-07 19:27 | 50.26545 | 11.22754 | 20417 ft | 458 kts | 359° |
| 2026-05-07 19:28 | 50.29738 | 11.22761 | 20724 ft | 460 kts | 359° |
| 2026-05-07 19:28 | 50.32948 | 11.22780 | 21021 ft | 461 kts | 359° |
| 2026-05-07 19:28 | 50.36159 | 11.22763 | 21350 ft | 462 kts | 356° |
| 2026-05-07 19:28 | 50.39369 | 11.22334 | 21660 ft | 463 kts | 353° |
| 2026-05-07 19:29 | 50.42576 | 11.21856 | 21956 ft | 465 kts | 353° |
| 2026-05-07 19:29 | 50.45805 | 11.21365 | 22249 ft | 466 kts | 353° |
| 2026-05-07 19:29 | 50.49039 | 11.20868 | 22530 ft | 468 kts | 353° |
| 2026-05-07 19:29 | 50.52283 | 11.20366 | 22853 ft | 469 kts | 353° |
| 2026-05-07 19:30 | 50.55497 | 11.19873 | 23162 ft | 470 kts | 353° |
| 2026-05-07 19:30 | 50.58763 | 11.19375 | 23467 ft | 472 kts | 353° |
| 2026-05-07 19:30 | 50.62026 | 11.18879 | 23823 ft | 471 kts | 353° |
| 2026-05-07 19:30 | 50.65288 | 11.18381 | 24176 ft | 470 kts | 353° |
| 2026-05-07 19:31 | 50.68546 | 11.17889 | 24538 ft | 469 kts | 353° |
| 2026-05-07 19:31 | 50.71801 | 11.17399 | 24898 ft | 468 kts | 353° |
| 2026-05-07 19:31 | 50.75043 | 11.16909 | 25264 ft | 468 kts | 353° |
| 2026-05-07 19:31 | 50.78271 | 11.16420 | 25344 ft | 463 kts | 353° |
| 2026-05-07 19:32 | 50.81484 | 11.15929 | 24565 ft | 465 kts | 353° |
| 2026-05-07 19:32 | 50.84731 | 11.15428 | 24617 ft | 470 kts | 353° |
| 2026-05-07 19:32 | 50.87973 | 11.14926 | 25046 ft | 467 kts | 353° |
| 2026-05-07 19:32 | 50.91199 | 11.14428 | 25444 ft | 466 kts | 353° |
| 2026-05-07 19:33 | 50.94419 | 11.13937 | 25943 ft | 459 kts | 353° |
| 2026-05-07 19:33 | 50.97576 | 11.13457 | 26087 ft | 453 kts | 353° |
| 2026-05-07 19:33 | 51.00714 | 11.12974 | 26111 ft | 455 kts | 353° |
| 2026-05-07 19:33 | 51.03870 | 11.12484 | 26109 ft | 455 kts | 353° |
| 2026-05-07 19:34 | 51.07023 | 11.11990 | 26109 ft | 455 kts | 353° |
| 2026-05-07 19:34 | 51.10165 | 11.11477 | 26108 ft | 454 kts | 351° |
| 2026-05-07 19:34 | 51.13217 | 11.10468 | 26106 ft | 453 kts | 343° |
| 2026-05-07 19:34 | 51.16174 | 11.08738 | 26105 ft | 452 kts | 335° |
| 2026-05-07 19:35 | 51.19085 | 11.06654 | 26105 ft | 453 kts | 335° |
| 2026-05-07 19:35 | 51.21927 | 11.04627 | 25866 ft | 453 kts | 335° |
| 2026-05-07 19:35 | 51.24807 | 11.02576 | 25497 ft | 454 kts | 335° |
| 2026-05-07 19:35 | 51.27701 | 11.00518 | 25125 ft | 456 kts | 335° |
| 2026-05-07 19:36 | 51.30606 | 10.98451 | 24759 ft | 458 kts | 335° |
| 2026-05-07 19:36 | 51.33516 | 10.96369 | 24398 ft | 459 kts | 334° |
| 2026-05-07 19:36 | 51.36429 | 10.94273 | 24042 ft | 460 kts | 334° |
| 2026-05-07 19:36 | 51.39356 | 10.92186 | 23687 ft | 461 kts | 335° |
| 2026-05-07 19:37 | 51.42310 | 10.90189 | 23271 ft | 462 kts | 336° |
| 2026-05-07 19:37 | 51.45292 | 10.88266 | 22860 ft | 462 kts | 337° |
| 2026-05-07 19:37 | 51.48150 | 10.85990 | 22449 ft | 457 kts | 325° |
| 2026-05-07 19:37 | 51.50562 | 10.82705 | 22126 ft | 453 kts | 314° |
| 2026-05-07 19:38 | 51.52790 | 10.79136 | 22086 ft | 453 kts | 314° |
| 2026-05-07 19:38 | 51.55028 | 10.75549 | 22103 ft | 454 kts | 314° |
| 2026-05-07 19:38 | 51.57260 | 10.71972 | 22084 ft | 453 kts | 314° |
| 2026-05-07 19:38 | 51.59467 | 10.68427 | 21402 ft | 446 kts | 314° |
| 2026-05-07 19:39 | 51.61659 | 10.64909 | 20603 ft | 442 kts | 314° |
| 2026-05-07 19:39 | 51.63828 | 10.61423 | 20229 ft | 441 kts | 314° |
| 2026-05-07 19:39 | 51.66002 | 10.57921 | 20067 ft | 441 kts | 314° |
| 2026-05-07 19:39 | 51.68144 | 10.54468 | 20108 ft | 441 kts | 314° |
| 2026-05-07 19:40 | 51.70343 | 10.50919 | 20105 ft | 442 kts | 314° |
| 2026-05-07 19:40 | 51.72513 | 10.47413 | 20108 ft | 442 kts | 314° |
| 2026-05-07 19:40 | 51.74681 | 10.43904 | 20108 ft | 442 kts | 314° |
| 2026-05-07 19:40 | 51.76816 | 10.40443 | 20108 ft | 442 kts | 314° |
| 2026-05-07 19:41 | 51.78985 | 10.36923 | 20078 ft | 440 kts | 314° |
| 2026-05-07 19:41 | 51.81128 | 10.33443 | 19489 ft | 435 kts | 314° |
| 2026-05-07 19:41 | 51.83262 | 10.29974 | 19015 ft | 434 kts | 314° |
| 2026-05-07 19:41 | 51.85388 | 10.26510 | 18567 ft | 433 kts | 314° |
| 2026-05-07 19:42 | 51.87503 | 10.23053 | 18075 ft | 432 kts | 314° |
| 2026-05-07 19:42 | 51.89604 | 10.19610 | 17564 ft | 429 kts | 314° |
| 2026-05-07 19:42 | 51.91692 | 10.16185 | 17067 ft | 426 kts | 314° |
| 2026-05-07 19:42 | 51.93765 | 10.12781 | 16567 ft | 423 kts | 314° |
| 2026-05-07 19:43 | 51.95829 | 10.09387 | 16069 ft | 420 kts | 314° |
| 2026-05-07 19:43 | 51.97871 | 10.06026 | 15590 ft | 417 kts | 314° |
| 2026-05-07 19:43 | 51.99904 | 10.02678 | 15111 ft | 414 kts | 314° |
| 2026-05-07 19:43 | 52.01915 | 9.99362 | 14649 ft | 410 kts | 314° |
| 2026-05-07 19:44 | 52.03888 | 9.96105 | 14189 ft | 400 kts | 314° |
| 2026-05-07 19:44 | 52.05803 | 9.92939 | 13710 ft | 380 kts | 314° |
| 2026-05-07 19:44 | 52.07603 | 9.89959 | 13204 ft | 359 kts | 314° |
| 2026-05-07 19:44 | 52.09305 | 9.87136 | 12702 ft | 341 kts | 314° |
| 2026-05-07 19:45 | 52.10927 | 9.84443 | 12214 ft | 326 kts | 314° |
| 2026-05-07 19:45 | 52.12482 | 9.81861 | 11729 ft | 313 kts | 314° |
| 2026-05-07 19:45 | 52.13967 | 9.79394 | 11285 ft | 304 kts | 314° |
| 2026-05-07 19:45 | 52.15464 | 9.76904 | 10886 ft | 304 kts | 314° |
| 2026-05-07 19:46 | 52.16940 | 9.74446 | 10488 ft | 303 kts | 314° |
| 2026-05-07 19:46 | 52.18411 | 9.71990 | 10108 ft | 302 kts | 314° |
| 2026-05-07 19:46 | 52.19857 | 9.69575 | 9694 ft | 301 kts | 314° |
| 2026-05-07 19:46 | 52.21319 | 9.67132 | 9263 ft | 300 kts | 315° |
| 2026-05-07 19:47 | 52.22770 | 9.64703 | 8840 ft | 298 kts | 315° |
| 2026-05-07 19:47 | 52.24185 | 9.62334 | 8389 ft | 287 kts | 315° |
| 2026-05-07 19:47 | 52.25560 | 9.60024 | 7898 ft | 280 kts | 315° |
| 2026-05-07 19:47 | 52.26915 | 9.57746 | 7421 ft | 278 kts | 315° |
| 2026-05-07 19:48 | 52.28257 | 9.55490 | 6965 ft | 276 kts | 315° |
| 2026-05-07 19:48 | 52.29598 | 9.53240 | 6645 ft | 275 kts | 315° |
| 2026-05-07 19:48 | 52.30928 | 9.51007 | 6300 ft | 274 kts | 315° |
| 2026-05-07 19:48 | 52.32252 | 9.48777 | 5976 ft | 273 kts | 315° |
| 2026-05-07 19:49 | 52.33575 | 9.46540 | 5637 ft | 273 kts | 315° |
| 2026-05-07 19:49 | 52.34891 | 9.44317 | 5304 ft | 272 kts | 316° |
| 2026-05-07 19:49 | 52.36212 | 9.42090 | 4980 ft | 272 kts | 316° |
| 2026-05-07 19:49 | 52.37531 | 9.39869 | 4636 ft | 272 kts | 316° |
| 2026-05-07 19:50 | 52.38843 | 9.37655 | 4290 ft | 271 kts | 316° |
| 2026-05-07 19:50 | 52.40150 | 9.35438 | 3941 ft | 270 kts | 317° |
| 2026-05-07 19:50 | 52.41454 | 9.33224 | 3615 ft | 270 kts | 317° |
| 2026-05-07 19:50 | 52.42833 | 9.31163 | 3273 ft | 264 kts | 333° |
| 2026-05-07 19:51 | 52.44529 | 9.30348 | 3009 ft | 250 kts | 8° |
| 2026-05-07 19:51 | 52.46087 | 9.31362 | 2980 ft | 242 kts | 45° |
| 2026-05-07 19:51 | 52.46886 | 9.33705 | 2984 ft | 239 kts | 82° |
| 2026-05-07 19:51 | 52.46630 | 9.36373 | 2988 ft | 242 kts | 110° |
| 2026-05-07 19:52 | 52.46152 | 9.38898 | 2979 ft | 222 kts | 93° |
| 2026-05-07 19:52 | 52.46144 | 9.41326 | 2979 ft | 206 kts | 89° |
| 2026-05-07 19:52 | 52.46121 | 9.43647 | 2976 ft | 203 kts | 91° |
| 2026-05-07 19:52 | 52.46071 | 9.45932 | 2805 ft | 202 kts | 91° |
| 2026-05-07 19:53 | 52.46014 | 9.48220 | 2561 ft | 200 kts | 92° |
| 2026-05-07 19:53 | 52.45956 | 9.50454 | 2297 ft | 191 kts | 92° |
| 2026-05-07 19:53 | 52.45902 | 9.52553 | 2059 ft | 177 kts | 92° |
| 2026-05-07 19:53 | 52.45852 | 9.54474 | 1834 ft | 159 kts | 92° |
| 2026-05-07 19:54 | 52.45807 | 9.56177 | 1632 ft | 142 kts | 93° |
| 2026-05-07 19:54 | 52.45765 | 9.57748 | 1420 ft | 135 kts | 93° |
| 2026-05-07 19:54 | 52.45725 | 9.59259 | 1237 ft | 132 kts | 94° |
| 2026-05-07 19:54 | 52.45687 | 9.60767 | 1038 ft | 132 kts | 94° |
| 2026-05-07 19:55 | 52.45645 | 9.62279 | 829 ft | 134 kts | 93° |
| 2026-05-07 19:55 | 52.45604 | 9.63815 | 653 ft | 135 kts | 94° |
| 2026-05-07 19:55 | 52.45563 | 9.65366 | 473 ft | 136 kts | 94° |
| 2026-05-07 19:55 | 52.45519 | 9.66922 | 299 ft | 137 kts | 94° |
| 2026-05-07 19:56 | 52.45477 | 9.68453 | 187 ft | 126 kts | 92° |
| 2026-05-07 19:56 | 52.45453 | 9.69304 | 184 ft | 96 kts | 92° |
| 2026-05-07 19:56 | 52.45430 | 9.70119 | 181 ft | 48 kts | 92° |
| 2026-05-07 19:56 | 52.45419 | 9.70524 | 183 ft | 23 kts | 92° |
| 2026-05-07 19:57 | 52.45435 | 9.70646 | 183 ft | 14 kts | 44° |
| 2026-05-07 19:57 | 52.45487 | 9.70667 | 180 ft | 1 kts | 4° |
| 2026-05-07 19:57 | 52.45523 | 9.70671 | 179 ft | 0 kts | 4° |
| 2026-05-07 19:58 | 52.45554 | 9.70675 | 178 ft | 15 kts | 4° |
| 2026-05-07 19:58 | 52.45651 | 9.70564 | 178 ft | 25 kts | 275° |
| 2026-05-07 19:58 | 52.45661 | 9.70245 | 178 ft | 29 kts | 272° |
| 2026-05-07 19:58 | 52.45669 | 9.69933 | 178 ft | 27 kts | 272° |
| 2026-05-07 19:59 | 52.45677 | 9.69620 | 178 ft | 25 kts | 273° |
| 2026-05-07 19:59 | 52.45750 | 9.69427 | 178 ft | 19 kts | 297° |
| 2026-05-07 19:59 | 52.45818 | 9.69373 | 178 ft | 3 kts | 32° |
| 2026-05-07 19:59 | 52.45836 | 9.69391 | 178 ft | 2 kts | 30° |
| 2026-05-07 20:00 | 52.45839 | 9.69394 | 178 ft | 0 kts | 30° |
| 2026-05-07 20:03 | 52.45840 | 9.69394 | 178 ft | 0 kts | 30° |